CheckWX is a tool to help pilots better visualize weather data.  It is not intended as a substitute for an official pre-flight weather briefing.

05:36:18 UTC

EGPD TAF
Aberdeen Dyce Airport
Aberdeen, United Kingdom
TAF EGPD 040455Z 0406/0506 VRB03KT 9999 FEW030 BECMG 0406/0409 19010KT PROB30 TEMPO 0412/0418 20015G25KT PROB40 TEMPO 0421/0506 19018G28KT

Apr-4@
06:00 UTC

Apr-4 @ 06:00 UTC

Apr-5@
06:00 UTC

Apr-5 @ 06:00 UTC

TAF EGPD 040455Z 0406/0506 VRB03KT 9999 FEW030
Wind
  • Variable at 3 KTS
Cloud Levels
  • Few at 3,000' AGL

Apr-4@
06:00 UTC

Apr-4 @ 06:00 UTC

Apr-5@
06:00 UTC

Apr-5 @ 06:00 UTC

BECMG 0406/0409 19010KT

Becoming

Becoming Conditions expected by Sat, Apr 4, 2020 @ 09:00 UTC

Wind
  • 190° at 10 KTS
Cloud Levels
  • Few at 3,000' AGL

Apr-4@
12:00 UTC

Apr-4 @ 12:00 UTC

Apr-4@
18:00 UTC

Apr-4 @ 18:00 UTC

PROB30 TEMPO 0412/0418 20015G25KT

Expired

Wind
  • 200° at 15 KTS
  • {Gusting to 25 KTS
Cloud Levels

Apr-4@
21:00 UTC

Apr-4 @ 21:00 UTC

Apr-5@
06:00 UTC

Apr-5 @ 06:00 UTC

PROB40 TEMPO 0421/0506 19018G28KT

Temporary - 40% Likelihood

Temporary - 40% Likelihood during this time.

Wind
  • 190° at 18 KTS
  • {Gusting to 28 KTS
Cloud Levels